sensor_id;sensor_type;location;lat;lon;timestamp;pressure;altitude;pressure_sealevel;temperature;humidity
41230;BME280;26964;50.428;19.218;2023-05-23T00:00:51;1016.7;;;12.4;56.3
41230;BME280;26964;50.428;19.218;2023-05-23T00:01:51;1016.6;;;12.4;56.3
41230;BME280;26964;50.428;19.218;2023-05-23T00:02:50;1016.6;;;12.4;56.4
41230;BME280;26964;50.428;19.218;2023-05-23T00:03:50;1016.6;;;12.4;56.4
41230;BME280;26964;50.428;19.218;2023-05-23T00:04:54;1016.6;;;12.3;56.4
41230;BME280;26964;50.428;19.218;2023-05-23T00:05:50;1016.6;;;12.3;56.4
41230;BME280;26964;50.428;19.218;2023-05-23T00:06:51;1016.6;;;12.3;56.4
41230;BME280;26964;50.428;19.218;2023-05-23T00:07:51;1016.6;;;12.3;56.5
41230;BME280;26964;50.428;19.218;2023-05-23T00:08:50;1016.6;;;12.3;56.5
41230;BME280;26964;50.428;19.218;2023-05-23T00:09:51;1016.5;;;12.3;56.5
41230;BME280;26964;50.428;19.218;2023-05-23T00:10:50;1016.5;;;12.3;56.5
41230;BME280;26964;50.428;19.218;2023-05-23T00:11:51;1016.5;;;12.3;56.5
41230;BME280;26964;50.428;19.218;2023-05-23T00:12:51;1016.5;;;12.3;56.6
41230;BME280;26964;50.428;19.218;2023-05-23T00:13:51;1016.5;;;12.3;56.6
41230;BME280;26964;50.428;19.218;2023-05-23T00:14:51;1016.4;;;12.2;56.6
41230;BME280;26964;50.428;19.218;2023-05-23T00:15:50;1016.4;;;12.2;56.7
41230;BME280;26964;50.428;19.218;2023-05-23T00:16:51;1016.4;;;12.2;56.7
41230;BME280;26964;50.428;19.218;2023-05-23T00:17:50;1016.5;;;12.2;56.7
41230;BME280;26964;50.428;19.218;2023-05-23T00:18:51;1016.4;;;12.2;56.7
41230;BME280;26964;50.428;19.218;2023-05-23T00:19:51;1016.4;;;12.2;56.7
41230;BME280;26964;50.428;19.218;2023-05-23T00:20:50;1016.4;;;12.2;56.7
41230;BME280;26964;50.428;19.218;2023-05-23T00:21:50;1016.4;;;12.1;56.8
41230;BME280;26964;50.428;19.218;2023-05-23T00:22:51;1016.4;;;12.1;56.8
41230;BME280;26964;50.428;19.218;2023-05-23T00:23:51;1016.3;;;12.1;56.8
41230;BME280;26964;50.428;19.218;2023-05-23T00:24:51;1016.4;;;12.1;56.8
41230;BME280;26964;50.428;19.218;2023-05-23T00:25:51;1016.4;;;12.1;56.8
41230;BME280;26964;50.428;19.218;2023-05-23T00:26:51;1016.4;;;12.1;56.8
41230;BME280;26964;50.428;19.218;2023-05-23T00:27:50;1016.4;;;12.0;56.9
41230;BME280;26964;50.428;19.218;2023-05-23T00:28:50;1016.4;;;12.0;56.9
41230;BME280;26964;50.428;19.218;2023-05-23T00:29:50;1016.3;;;12.0;56.9
41230;BME280;26964;50.428;19.218;2023-05-23T00:30:50;1016.3;;;12.0;56.9
41230;BME280;26964;50.428;19.218;2023-05-23T00:31:51;1016.4;;;12.0;57.0
41230;BME280;26964;50.428;19.218;2023-05-23T00:32:50;1016.4;;;12.0;57.0
41230;BME280;26964;50.428;19.218;2023-05-23T00:33:50;1016.4;;;11.9;57.0
41230;BME280;26964;50.428;19.218;2023-05-23T00:34:50;1016.4;;;11.9;57.0
41230;BME280;26964;50.428;19.218;2023-05-23T00:35:50;1016.3;;;11.9;57.1
41230;BME280;26964;50.428;19.218;2023-05-23T00:36:50;1016.3;;;11.9;57.1
41230;BME280;26964;50.428;19.218;2023-05-23T00:37:50;1016.4;;;11.9;57.1
41230;BME280;26964;50.428;19.218;2023-05-23T00:38:50;1016.3;;;11.9;57.1
41230;BME280;26964;50.428;19.218;2023-05-23T00:39:50;1016.4;;;11.9;57.1
41230;BME280;26964;50.428;19.218;2023-05-23T00:40:50;1016.4;;;11.9;57.2
41230;BME280;26964;50.428;19.218;2023-05-23T00:41:50;1016.2;;;11.9;57.2
41230;BME280;26964;50.428;19.218;2023-05-23T00:42:50;1016.4;;;11.9;57.2
41230;BME280;26964;50.428;19.218;2023-05-23T00:43:51;1016.4;;;11.9;57.2
41230;BME280;26964;50.428;19.218;2023-05-23T00:44:51;1016.3;;;11.9;57.2
41230;BME280;26964;50.428;19.218;2023-05-23T00:45:50;1016.4;;;11.8;57.3
41230;BME280;26964;50.428;19.218;2023-05-23T00:46:54;1016.3;;;11.8;57.3
41230;BME280;26964;50.428;19.218;2023-05-23T00:47:51;1016.4;;;11.8;57.3
41230;BME280;26964;50.428;19.218;2023-05-23T00:48:50;1016.3;;;11.8;57.3
41230;BME280;26964;50.428;19.218;2023-05-23T00:49:50;1016.4;;;11.8;57.3
41230;BME280;26964;50.428;19.218;2023-05-23T00:50:50;1016.4;;;11.8;57.3
41230;BME280;26964;50.428;19.218;2023-05-23T00:51:50;1016.4;;;11.8;57.3
41230;BME280;26964;50.428;19.218;2023-05-23T00:52:50;1016.4;;;11.8;57.4
41230;BME280;26964;50.428;19.218;2023-05-23T00:53:50;1016.3;;;11.8;57.4
41230;BME280;26964;50.428;19.218;2023-05-23T00:54:50;1016.4;;;11.8;57.4
41230;BME280;26964;50.428;19.218;2023-05-23T00:55:50;1016.3;;;11.8;57.5
41230;BME280;26964;50.428;19.218;2023-05-23T00:56:50;1016.4;;;11.8;57.5
41230;BME280;26964;50.428;19.218;2023-05-23T00:57:51;1016.3;;;11.7;57.5
41230;BME280;26964;50.428;19.218;2023-05-23T00:58:51;1016.4;;;11.7;57.5
41230;BME280;26964;50.428;19.218;2023-05-23T00:59:50;1016.3;;;11.7;57.5
41230;BME280;26964;50.428;19.218;2023-05-23T01:00:50;1016.4;;;11.7;57.6
41230;BME280;26964;50.428;19.218;2023-05-23T01:01:50;1016.4;;;11.7;57.5
41230;BME280;26964;50.428;19.218;2023-05-23T01:02:50;1016.4;;;11.6;57.6
41230;BME280;26964;50.428;19.218;2023-05-23T01:03:51;1016.4;;;11.6;57.6
41230;BME280;26964;50.428;19.218;2023-05-23T01:04:50;1016.4;;;11.6;57.6
41230;BME280;26964;50.428;19.218;2023-05-23T01:05:50;1016.4;;;11.6;57.7
41230;BME280;26964;50.428;19.218;2023-05-23T01:06:50;1016.3;;;11.6;57.6
41230;BME280;26964;50.428;19.218;2023-05-23T01:07:50;1016.4;;;11.5;57.7
41230;BME280;26964;50.428;19.218;2023-05-23T01:08:50;1016.4;;;11.5;57.7
41230;BME280;26964;50.428;19.218;2023-05-23T01:09:50;1016.3;;;11.5;57.7
41230;BME280;26964;50.428;19.218;2023-05-23T01:10:50;1016.4;;;11.5;57.8
41230;BME280;26964;50.428;19.218;2023-05-23T01:12:09;1016.4;;;11.5;57.8
41230;BME280;26964;50.428;19.218;2023-05-23T01:12:57;1016.3;;;11.4;57.8
41230;BME280;26964;50.428;19.218;2023-05-23T01:13:54;1016.4;;;11.4;57.8
41230;BME280;26964;50.428;19.218;2023-05-23T01:14:55;1016.3;;;11.4;57.8
41230;BME280;26964;50.428;19.218;2023-05-23T01:15:54;1016.2;;;11.4;57.8
41230;BME280;26964;50.428;19.218;2023-05-23T01:16:54;1016.3;;;11.3;57.9
41230;BME280;26964;50.428;19.218;2023-05-23T01:17:56;1016.3;;;11.3;57.9
41230;BME280;26964;50.428;19.218;2023-05-23T01:18:54;1016.3;;;11.3;58.0
41230;BME280;26964;50.428;19.218;2023-05-23T01:19:56;1016.2;;;11.2;58.0
41230;BME280;26964;50.428;19.218;2023-05-23T01:20:52;1016.2;;;11.2;58.0
41230;BME280;26964;50.428;19.218;2023-05-23T01:21:54;1016.2;;;11.1;58.0
41230;BME280;26964;50.428;19.218;2023-05-23T01:24:54;1016.2;;;11.1;58.1
41230;BME280;26964;50.428;19.218;2023-05-23T01:27:52;1016.3;;;10.9;58.3
41230;BME280;26964;50.428;19.218;2023-05-23T01:28:54;1016.2;;;10.9;58.4
41230;BME280;26964;50.428;19.218;2023-05-23T01:29:55;1016.3;;;10.8;58.4
41230;BME280;26964;50.428;19.218;2023-05-23T01:30:51;1016.1;;;10.8;58.4
41230;BME280;26964;50.428;19.218;2023-05-23T01:31:52;1016.3;;;10.8;58.5
41230;BME280;26964;50.428;19.218;2023-05-23T01:32:54;1016.2;;;10.7;58.5
41230;BME280;26964;50.428;19.218;2023-05-23T01:33:50;1016.1;;;10.7;58.7
41230;BME280;26964;50.428;19.218;2023-05-23T01:34:52;1016.1;;;10.6;58.7
41230;BME280;26964;50.428;19.218;2023-05-23T01:35:50;1016.1;;;10.6;58.8
41230;BME280;26964;50.428;19.218;2023-05-23T01:36:54;1016.2;;;10.6;58.8
41230;BME280;26964;50.428;19.218;2023-05-23T01:37:50;1016.1;;;10.6;58.8
41230;BME280;26964;50.428;19.218;2023-05-23T01:38:51;1016.1;;;10.6;58.9
41230;BME280;26964;50.428;19.218;2023-05-23T01:39:51;1016.0;;;10.6;58.9
41230;BME280;26964;50.428;19.218;2023-05-23T01:40:50;1016.1;;;10.6;59.0
41230;BME280;26964;50.428;19.218;2023-05-23T01:41:50;1016.1;;;10.6;59.0
41230;BME280;26964;50.428;19.218;2023-05-23T01:42:51;1016.1;;;10.6;59.1
41230;BME280;26964;50.428;19.218;2023-05-23T01:43:51;1016.1;;;10.6;59.0
41230;BME280;26964;50.428;19.218;2023-05-23T01:44:51;1016.1;;;10.6;59.1
41230;BME280;26964;50.428;19.218;2023-05-23T01:45:51;1016.1;;;10.6;59.1
41230;BME280;26964;50.428;19.218;2023-05-23T01:46:50;1016.2;;;10.5;59.1
41230;BME280;26964;50.428;19.218;2023-05-23T01:47:50;1016.1;;;10.5;59.1
41230;BME280;26964;50.428;19.218;2023-05-23T01:48:50;1016.1;;;10.5;59.2
41230;BME280;26964;50.428;19.218;2023-05-23T01:49:50;1016.2;;;10.5;59.2
41230;BME280;26964;50.428;19.218;2023-05-23T01:50:50;1016.1;;;10.5;59.2
41230;BME280;26964;50.428;19.218;2023-05-23T01:51:50;1016.2;;;10.5;59.3
41230;BME280;26964;50.428;19.218;2023-05-23T01:52:50;1016.2;;;10.5;59.3
41230;BME280;26964;50.428;19.218;2023-05-23T01:53:50;1016.2;;;10.5;59.4
41230;BME280;26964;50.428;19.218;2023-05-23T01:54:50;1016.2;;;10.5;59.3
41230;BME280;26964;50.428;19.218;2023-05-23T01:55:50;1016.1;;;10.5;59.4
41230;BME280;26964;50.428;19.218;2023-05-23T01:56:50;1016.2;;;10.5;59.4
41230;BME280;26964;50.428;19.218;2023-05-23T01:57:50;1016.2;;;10.5;59.4
41230;BME280;26964;50.428;19.218;2023-05-23T01:58:50;1016.2;;;10.5;59.4
41230;BME280;26964;50.428;19.218;2023-05-23T01:59:50;1016.1;;;10.5;59.4
41230;BME280;26964;50.428;19.218;2023-05-23T02:00:50;1016.1;;;10.5;59.5
41230;BME280;26964;50.428;19.218;2023-05-23T02:01:50;1016.1;;;10.5;59.5
41230;BME280;26964;50.428;19.218;2023-05-23T02:02:51;1016.2;;;10.5;59.6
41230;BME280;26964;50.428;19.218;2023-05-23T02:03:50;1016.1;;;10.4;59.6
41230;BME280;26964;50.428;19.218;2023-05-23T02:04:50;1016.1;;;10.4;59.6
41230;BME280;26964;50.428;19.218;2023-05-23T02:05:50;1016.1;;;10.4;59.6
41230;BME280;26964;50.428;19.218;2023-05-23T02:06:50;1016.1;;;10.4;59.7
41230;BME280;26964;50.428;19.218;2023-05-23T02:07:50;1016.1;;;10.4;59.7
41230;BME280;26964;50.428;19.218;2023-05-23T02:08:50;1016.1;;;10.3;59.7
41230;BME280;26964;50.428;19.218;2023-05-23T02:09:51;1016.1;;;10.3;59.7
41230;BME280;26964;50.428;19.218;2023-05-23T02:10:50;1016.0;;;10.2;59.8
41230;BME280;26964;50.428;19.218;2023-05-23T02:11:51;1016.1;;;10.2;59.8
41230;BME280;26964;50.428;19.218;2023-05-23T02:12:51;1016.1;;;10.1;59.9
41230;BME280;26964;50.428;19.218;2023-05-23T02:13:51;1016.0;;;10.1;59.9
41230;BME280;26964;50.428;19.218;2023-05-23T02:14:50;1016.1;;;10.1;60.0
41230;BME280;26964;50.428;19.218;2023-05-23T02:15:50;1016.1;;;10.0;60.1
41230;BME280;26964;50.428;19.218;2023-05-23T02:16:50;1016.1;;;10.0;60.1
41230;BME280;26964;50.428;19.218;2023-05-23T02:17:50;1016.1;;;10.0;60.1
41230;BME280;26964;50.428;19.218;2023-05-23T02:18:50;1016.1;;;10.0;60.1
41230;BME280;26964;50.428;19.218;2023-05-23T02:19:51;1016.1;;;10.0;60.2
41230;BME280;26964;50.428;19.218;2023-05-23T02:20:50;1016.1;;;10.0;60.3
41230;BME280;26964;50.428;19.218;2023-05-23T02:21:50;1016.1;;;10.0;60.3
41230;BME280;26964;50.428;19.218;2023-05-23T02:22:50;1016.0;;;10.0;60.3
41230;BME280;26964;50.428;19.218;2023-05-23T02:23:49;1016.0;;;10.0;60.4
41230;BME280;26964;50.428;19.218;2023-05-23T02:24:51;1016.1;;;10.0;60.4
41230;BME280;26964;50.428;19.218;2023-05-23T02:25:50;1016.0;;;10.0;60.5
41230;BME280;26964;50.428;19.218;2023-05-23T02:26:50;1016.0;;;10.0;60.5
41230;BME280;26964;50.428;19.218;2023-05-23T02:27:49;1016.1;;;10.1;60.5
41230;BME280;26964;50.428;19.218;2023-05-23T02:28:50;1016.0;;;10.1;60.5
41230;BME280;26964;50.428;19.218;2023-05-23T02:29:50;1016.0;;;10.1;60.5
41230;BME280;26964;50.428;19.218;2023-05-23T02:30:50;1016.1;;;10.1;60.5
41230;BME280;26964;50.428;19.218;2023-05-23T02:31:49;1016.1;;;10.1;60.5
41230;BME280;26964;50.428;19.218;2023-05-23T02:32:50;1016.1;;;10.1;60.5
41230;BME280;26964;50.428;19.218;2023-05-23T02:33:49;1016.1;;;10.1;60.5
41230;BME280;26964;50.428;19.218;2023-05-23T02:34:50;1016.0;;;10.1;60.5
41230;BME280;26964;50.428;19.218;2023-05-23T02:35:50;1016.0;;;10.2;60.5
41230;BME280;26964;50.428;19.218;2023-05-23T02:36:50;1016.1;;;10.2;60.5
41230;BME280;26964;50.428;19.218;2023-05-23T02:37:50;1016.1;;;10.2;60.5
41230;BME280;26964;50.428;19.218;2023-05-23T02:38:50;1016.1;;;10.2;60.5
41230;BME280;26964;50.428;19.218;2023-05-23T02:39:50;1016.0;;;10.3;60.5
41230;BME280;26964;50.428;19.218;2023-05-23T02:40:50;1016.0;;;10.3;60.5
41230;BME280;26964;50.428;19.218;2023-05-23T02:41:50;1016.0;;;10.3;60.5
41230;BME280;26964;50.428;19.218;2023-05-23T02:42:50;1016.1;;;10.3;60.5
41230;BME280;26964;50.428;19.218;2023-05-23T02:43:50;1016.0;;;10.3;60.5
41230;BME280;26964;50.428;19.218;2023-05-23T02:44:50;1016.0;;;10.3;60.5
41230;BME280;26964;50.428;19.218;2023-05-23T02:45:50;1016.1;;;10.3;60.5
41230;BME280;26964;50.428;19.218;2023-05-23T02:46:50;1016.0;;;10.3;60.5
41230;BME280;26964;50.428;19.218;2023-05-23T02:47:50;1016.1;;;10.3;60.5
41230;BME280;26964;50.428;19.218;2023-05-23T02:48:50;1016.1;;;10.3;60.5
41230;BME280;26964;50.428;19.218;2023-05-23T02:49:50;1016.0;;;10.3;60.5
41230;BME280;26964;50.428;19.218;2023-05-23T02:50:50;1016.1;;;10.3;60.6
41230;BME280;26964;50.428;19.218;2023-05-23T02:51:49;1016.0;;;10.3;60.5
41230;BME280;26964;50.428;19.218;2023-05-23T02:52:50;1016.0;;;10.3;60.5
41230;BME280;26964;50.428;19.218;2023-05-23T02:53:50;1016.0;;;10.3;60.6
41230;BME280;26964;50.428;19.218;2023-05-23T02:54:50;1016.0;;;10.3;60.6
41230;BME280;26964;50.428;19.218;2023-05-23T02:55:50;1016.0;;;10.3;60.6
41230;BME280;26964;50.428;19.218;2023-05-23T02:56:50;1016.0;;;10.3;60.6
41230;BME280;26964;50.428;19.218;2023-05-23T02:57:49;1016.0;;;10.3;60.6
41230;BME280;26964;50.428;19.218;2023-05-23T02:58:50;1015.9;;;10.3;60.6
41230;BME280;26964;50.428;19.218;2023-05-23T02:59:50;1015.9;;;10.3;60.7
41230;BME280;26964;50.428;19.218;2023-05-23T03:00:50;1015.9;;;10.3;60.7
41230;BME280;26964;50.428;19.218;2023-05-23T03:01:50;1015.9;;;10.3;60.7
41230;BME280;26964;50.428;19.218;2023-05-23T03:02:49;1015.9;;;10.3;60.8
41230;BME280;26964;50.428;19.218;2023-05-23T03:03:50;1015.9;;;10.3;60.7
41230;BME280;26964;50.428;19.218;2023-05-23T03:04:50;1015.8;;;10.3;60.7
41230;BME280;26964;50.428;19.218;2023-05-23T03:05:50;1015.9;;;10.3;60.7
41230;BME280;26964;50.428;19.218;2023-05-23T03:06:50;1015.9;;;10.3;60.7
41230;BME280;26964;50.428;19.218;2023-05-23T03:07:50;1015.9;;;10.3;60.8
41230;BME280;26964;50.428;19.218;2023-05-23T03:08:50;1015.9;;;10.3;60.8
41230;BME280;26964;50.428;19.218;2023-05-23T03:09:50;1015.9;;;10.3;60.8
41230;BME280;26964;50.428;19.218;2023-05-23T03:10:49;1015.9;;;10.3;60.8
41230;BME280;26964;50.428;19.218;2023-05-23T03:11:50;1015.8;;;10.3;60.8
41230;BME280;26964;50.428;19.218;2023-05-23T03:12:50;1015.8;;;10.3;60.8
41230;BME280;26964;50.428;19.218;2023-05-23T03:13:50;1015.8;;;10.2;60.8
41230;BME280;26964;50.428;19.218;2023-05-23T03:14:50;1015.8;;;10.2;60.8
41230;BME280;26964;50.428;19.218;2023-05-23T03:15:50;1015.8;;;10.2;60.8
41230;BME280;26964;50.428;19.218;2023-05-23T03:16:50;1015.7;;;10.2;60.9
41230;BME280;26964;50.428;19.218;2023-05-23T03:17:50;1015.8;;;10.2;60.9
41230;BME280;26964;50.428;19.218;2023-05-23T03:18:50;1015.8;;;10.2;61.0
41230;BME280;26964;50.428;19.218;2023-05-23T03:19:50;1015.8;;;10.2;61.0
41230;BME280;26964;50.428;19.218;2023-05-23T03:20:50;1015.8;;;10.2;61.1
41230;BME280;26964;50.428;19.218;2023-05-23T03:21:50;1015.8;;;10.2;61.1
41230;BME280;26964;50.428;19.218;2023-05-23T03:22:50;1015.8;;;10.2;61.1
41230;BME280;26964;50.428;19.218;2023-05-23T03:23:50;1015.8;;;10.2;61.1
41230;BME280;26964;50.428;19.218;2023-05-23T03:24:50;1015.8;;;10.2;61.1
41230;BME280;26964;50.428;19.218;2023-05-23T03:25:50;1015.7;;;10.2;61.1
41230;BME280;26964;50.428;19.218;2023-05-23T03:26:50;1015.8;;;10.2;61.1
41230;BME280;26964;50.428;19.218;2023-05-23T03:27:50;1015.8;;;10.3;61.1
41230;BME280;26964;50.428;19.218;2023-05-23T03:28:50;1015.8;;;10.3;61.1
41230;BME280;26964;50.428;19.218;2023-05-23T03:29:50;1015.8;;;10.3;61.2
41230;BME280;26964;50.428;19.218;2023-05-23T03:30:50;1015.7;;;10.3;61.2
41230;BME280;26964;50.428;19.218;2023-05-23T03:31:49;1015.7;;;10.3;61.2
41230;BME280;26964;50.428;19.218;2023-05-23T03:32:50;1015.8;;;10.3;61.2
41230;BME280;26964;50.428;19.218;2023-05-23T03:33:50;1015.8;;;10.3;61.2
41230;BME280;26964;50.428;19.218;2023-05-23T03:34:49;1015.7;;;10.3;61.3
41230;BME280;26964;50.428;19.218;2023-05-23T03:35:49;1015.7;;;10.4;61.3
41230;BME280;26964;50.428;19.218;2023-05-23T03:36:50;1015.7;;;10.4;61.3
41230;BME280;26964;50.428;19.218;2023-05-23T03:37:49;1015.7;;;10.4;61.4
41230;BME280;26964;50.428;19.218;2023-05-23T03:38:49;1015.7;;;10.4;61.4
41230;BME280;26964;50.428;19.218;2023-05-23T03:39:49;1015.7;;;10.4;61.4
41230;BME280;26964;50.428;19.218;2023-05-23T03:40:50;1015.7;;;10.4;61.5
41230;BME280;26964;50.428;19.218;2023-05-23T03:41:50;1015.8;;;10.4;61.5
41230;BME280;26964;50.428;19.218;2023-05-23T03:43:50;1015.7;;;10.4;61.6
41230;BME280;26964;50.428;19.218;2023-05-23T03:44:50;1015.7;;;10.4;61.6
41230;BME280;26964;50.428;19.218;2023-05-23T03:45:49;1015.7;;;10.4;61.8
41230;BME280;26964;50.428;19.218;2023-05-23T03:46:49;1015.7;;;10.4;61.7
41230;BME280;26964;50.428;19.218;2023-05-23T03:47:50;1015.7;;;10.4;61.7
41230;BME280;26964;50.428;19.218;2023-05-23T03:48:50;1015.7;;;10.4;61.7
41230;BME280;26964;50.428;19.218;2023-05-23T03:49:49;1015.7;;;10.4;61.7
41230;BME280;26964;50.428;19.218;2023-05-23T03:50:50;1015.7;;;10.4;61.7
41230;BME280;26964;50.428;19.218;2023-05-23T03:51:50;1015.8;;;10.4;61.7
41230;BME280;26964;50.428;19.218;2023-05-23T03:52:49;1015.7;;;10.4;61.7
41230;BME280;26964;50.428;19.218;2023-05-23T03:53:50;1015.7;;;10.5;61.7
41230;BME280;26964;50.428;19.218;2023-05-23T03:54:49;1015.7;;;10.5;61.7
41230;BME280;26964;50.428;19.218;2023-05-23T03:55:49;1015.7;;;10.5;61.7
41230;BME280;26964;50.428;19.218;2023-05-23T03:56:50;1015.8;;;10.6;61.8
41230;BME280;26964;50.428;19.218;2023-05-23T03:57:50;1015.8;;;10.6;61.7
41230;BME280;26964;50.428;19.218;2023-05-23T03:58:50;1015.8;;;10.6;61.7
41230;BME280;26964;50.428;19.218;2023-05-23T03:59:50;1015.8;;;10.7;61.7
41230;BME280;26964;50.428;19.218;2023-05-23T04:00:50;1015.7;;;10.7;61.7
41230;BME280;26964;50.428;19.218;2023-05-23T04:01:49;1015.7;;;10.7;61.7
41230;BME280;26964;50.428;19.218;2023-05-23T04:02:50;1015.9;;;10.7;61.6
41230;BME280;26964;50.428;19.218;2023-05-23T04:03:50;1015.8;;;10.8;61.6
41230;BME280;26964;50.428;19.218;2023-05-23T04:04:50;1015.8;;;10.8;61.6
41230;BME280;26964;50.428;19.218;2023-05-23T04:05:50;1015.9;;;10.8;61.6
41230;BME280;26964;50.428;19.218;2023-05-23T04:06:50;1015.8;;;10.8;61.6
41230;BME280;26964;50.428;19.218;2023-05-23T04:07:49;1015.8;;;10.8;61.6
41230;BME280;26964;50.428;19.218;2023-05-23T04:08:50;1015.8;;;10.8;61.7
41230;BME280;26964;50.428;19.218;2023-05-23T04:09:50;1015.7;;;10.9;61.7
41230;BME280;26964;50.428;19.218;2023-05-23T04:10:49;1015.7;;;10.9;61.7
41230;BME280;26964;50.428;19.218;2023-05-23T04:11:50;1015.7;;;10.9;61.7
41230;BME280;26964;50.428;19.218;2023-05-23T04:12:49;1015.7;;;10.9;61.8
41230;BME280;26964;50.428;19.218;2023-05-23T04:13:50;1015.7;;;10.9;61.7
41230;BME280;26964;50.428;19.218;2023-05-23T04:14:50;1015.8;;;10.9;61.8
41230;BME280;26964;50.428;19.218;2023-05-23T04:15:50;1015.7;;;10.9;61.8
41230;BME280;26964;50.428;19.218;2023-05-23T04:16:50;1015.7;;;11.0;61.8
41230;BME280;26964;50.428;19.218;2023-05-23T04:17:50;1015.7;;;11.0;61.8
41230;BME280;26964;50.428;19.218;2023-05-23T04:18:50;1015.7;;;11.0;61.9
41230;BME280;26964;50.428;19.218;2023-05-23T04:19:49;1015.8;;;11.0;61.9
41230;BME280;26964;50.428;19.218;2023-05-23T04:20:50;1015.8;;;11.1;61.9
41230;BME280;26964;50.428;19.218;2023-05-23T04:21:50;1015.7;;;11.1;61.9
41230;BME280;26964;50.428;19.218;2023-05-23T04:22:50;1015.8;;;11.1;61.9
41230;BME280;26964;50.428;19.218;2023-05-23T04:23:49;1015.7;;;11.1;61.9
41230;BME280;26964;50.428;19.218;2023-05-23T04:24:50;1015.7;;;11.1;61.8
41230;BME280;26964;50.428;19.218;2023-05-23T04:25:50;1015.7;;;11.2;61.9
41230;BME280;26964;50.428;19.218;2023-05-23T04:26:50;1015.7;;;11.2;61.9
41230;BME280;26964;50.428;19.218;2023-05-23T04:27:50;1015.7;;;11.2;61.9
41230;BME280;26964;50.428;19.218;2023-05-23T04:28:50;1015.7;;;11.3;61.8
41230;BME280;26964;50.428;19.218;2023-05-23T04:29:50;1015.8;;;11.3;61.8
41230;BME280;26964;50.428;19.218;2023-05-23T04:30:49;1015.6;;;11.3;61.9
41230;BME280;26964;50.428;19.218;2023-05-23T04:31:50;1015.7;;;11.4;61.8
41230;BME280;26964;50.428;19.218;2023-05-23T04:32:50;1015.7;;;11.4;61.9
41230;BME280;26964;50.428;19.218;2023-05-23T04:33:50;1015.6;;;11.4;61.9
41230;BME280;26964;50.428;19.218;2023-05-23T04:34:49;1015.6;;;11.4;61.8
41230;BME280;26964;50.428;19.218;2023-05-23T04:35:50;1015.7;;;11.5;61.9
41230;BME280;26964;50.428;19.218;2023-05-23T04:36:50;1015.7;;;11.5;61.8
41230;BME280;26964;50.428;19.218;2023-05-23T04:37:49;1015.7;;;11.6;61.9
41230;BME280;26964;50.428;19.218;2023-05-23T04:38:49;1015.7;;;11.6;61.9
41230;BME280;26964;50.428;19.218;2023-05-23T04:39:51;1015.7;;;11.6;61.8
41230;BME280;26964;50.428;19.218;2023-05-23T04:40:50;1015.7;;;11.7;61.9
41230;BME280;26964;50.428;19.218;2023-05-23T04:41:50;1015.6;;;11.7;61.8
41230;BME280;26964;50.428;19.218;2023-05-23T04:42:49;1015.6;;;11.7;61.9
41230;BME280;26964;50.428;19.218;2023-05-23T04:43:50;1015.6;;;11.8;61.8
41230;BME280;26964;50.428;19.218;2023-05-23T04:44:49;1015.5;;;11.8;61.9
41230;BME280;26964;50.428;19.218;2023-05-23T04:45:49;1015.6;;;11.9;61.9
41230;BME280;26964;50.428;19.218;2023-05-23T04:46:50;1015.5;;;11.9;61.9
41230;BME280;26964;50.428;19.218;2023-05-23T04:47:50;1015.6;;;11.9;61.9
41230;BME280;26964;50.428;19.218;2023-05-23T04:48:50;1015.6;;;12.0;61.9
41230;BME280;26964;50.428;19.218;2023-05-23T04:49:50;1015.6;;;12.0;61.9
41230;BME280;26964;50.428;19.218;2023-05-23T04:50:50;1015.6;;;12.0;61.8
41230;BME280;26964;50.428;19.218;2023-05-23T04:51:50;1015.6;;;12.1;61.8
41230;BME280;26964;50.428;19.218;2023-05-23T04:52:50;1015.5;;;12.1;61.8
41230;BME280;26964;50.428;19.218;2023-05-23T04:53:50;1015.5;;;12.1;61.8
41230;BME280;26964;50.428;19.218;2023-05-23T04:54:49;1015.5;;;12.2;61.8
41230;BME280;26964;50.428;19.218;2023-05-23T04:55:50;1015.5;;;12.2;61.8
41230;BME280;26964;50.428;19.218;2023-05-23T04:56:49;1015.6;;;12.3;61.8
41230;BME280;26964;50.428;19.218;2023-05-23T04:57:50;1015.6;;;12.3;61.8
41230;BME280;26964;50.428;19.218;2023-05-23T04:58:50;1015.5;;;12.3;61.8
41230;BME280;26964;50.428;19.218;2023-05-23T04:59:49;1015.5;;;12.4;61.8
41230;BME280;26964;50.428;19.218;2023-05-23T05:00:49;1015.4;;;12.4;61.8
41230;BME280;26964;50.428;19.218;2023-05-23T05:01:50;1015.4;;;12.4;61.8
41230;BME280;26964;50.428;19.218;2023-05-23T05:02:50;1015.5;;;12.5;61.8
41230;BME280;26964;50.428;19.218;2023-05-23T05:03:49;1015.6;;;12.5;61.8
41230;BME280;26964;50.428;19.218;2023-05-23T05:04:50;1015.5;;;12.6;61.8
41230;BME280;26964;50.428;19.218;2023-05-23T05:05:50;1015.5;;;12.6;61.8
41230;BME280;26964;50.428;19.218;2023-05-23T05:06:50;1015.5;;;12.6;61.8
41230;BME280;26964;50.428;19.218;2023-05-23T05:07:49;1015.5;;;12.7;61.8
41230;BME280;26964;50.428;19.218;2023-05-23T05:08:50;1015.5;;;12.7;61.8
41230;BME280;26964;50.428;19.218;2023-05-23T05:09:51;1015.5;;;12.8;61.8
41230;BME280;26964;50.428;19.218;2023-05-23T05:10:50;1015.5;;;12.8;61.7
41230;BME280;26964;50.428;19.218;2023-05-23T05:11:50;1015.5;;;12.8;61.7
41230;BME280;26964;50.428;19.218;2023-05-23T05:12:50;1015.5;;;12.8;61.7
41230;BME280;26964;50.428;19.218;2023-05-23T05:13:50;1015.5;;;12.9;61.7
41230;BME280;26964;50.428;19.218;2023-05-23T05:14:50;1015.4;;;12.9;61.7
41230;BME280;26964;50.428;19.218;2023-05-23T05:15:50;1015.4;;;13.0;61.7
41230;BME280;26964;50.428;19.218;2023-05-23T05:16:50;1015.4;;;13.0;61.7
41230;BME280;26964;50.428;19.218;2023-05-23T05:17:50;1015.5;;;13.0;61.7
41230;BME280;26964;50.428;19.218;2023-05-23T05:18:49;1015.5;;;13.1;61.7
41230;BME280;26964;50.428;19.218;2023-05-23T05:19:50;1015.4;;;13.1;61.7
41230;BME280;26964;50.428;19.218;2023-05-23T05:20:50;1015.4;;;13.1;61.7
41230;BME280;26964;50.428;19.218;2023-05-23T05:21:50;1015.4;;;13.2;61.7
41230;BME280;26964;50.428;19.218;2023-05-23T05:22:54;1015.4;;;13.2;61.7
41230;BME280;26964;50.428;19.218;2023-05-23T05:23:50;1015.4;;;13.2;61.7
41230;BME280;26964;50.428;19.218;2023-05-23T05:24:50;1015.4;;;13.3;61.7
41230;BME280;26964;50.428;19.218;2023-05-23T05:25:50;1015.3;;;13.3;61.7
41230;BME280;26964;50.428;19.218;2023-05-23T05:26:50;1015.3;;;13.3;61.7
41230;BME280;26964;50.428;19.218;2023-05-23T05:27:50;1015.4;;;13.4;61.7
41230;BME280;26964;50.428;19.218;2023-05-23T05:28:50;1015.4;;;13.4;61.6
41230;BME280;26964;50.428;19.218;2023-05-23T05:29:49;1015.4;;;13.4;61.6
41230;BME280;26964;50.428;19.218;2023-05-23T05:30:49;1015.3;;;13.5;61.6
41230;BME280;26964;50.428;19.218;2023-05-23T05:31:49;1015.4;;;13.5;61.6
41230;BME280;26964;50.428;19.218;2023-05-23T05:32:50;1015.3;;;13.6;61.5
41230;BME280;26964;50.428;19.218;2023-05-23T05:33:50;1015.4;;;13.6;61.6
41230;BME280;26964;50.428;19.218;2023-05-23T05:34:50;1015.4;;;13.6;61.6
41230;BME280;26964;50.428;19.218;2023-05-23T05:35:49;1015.3;;;13.7;61.6